sensor_id;sensor_type;location;lat;lon;timestamp;P1;durP1;ratioP1;P2;durP2;ratioP2
2872;SDS011;1444;49.166;7.312;2022-08-27T00:01:51;24.50;;;16.60;;
2872;SDS011;1444;49.166;7.312;2022-08-27T00:04:18;30.37;;;16.30;;
2872;SDS011;1444;49.166;7.312;2022-08-27T00:06:46;30.40;;;16.33;;
2872;SDS011;1444;49.166;7.312;2022-08-27T00:09:13;21.03;;;15.37;;
2872;SDS011;1444;49.166;7.312;2022-08-27T00:11:39;25.53;;;16.03;;
2872;SDS011;1444;49.166;7.312;2022-08-27T00:14:06;25.80;;;15.43;;
2872;SDS011;1444;49.166;7.312;2022-08-27T00:16:33;30.53;;;15.73;;
2872;SDS011;1444;49.166;7.312;2022-08-27T00:19:00;22.30;;;15.60;;
2872;SDS011;1444;49.166;7.312;2022-08-27T00:21:26;27.50;;;15.80;;
2872;SDS011;1444;49.166;7.312;2022-08-27T00:23:54;21.00;;;14.20;;
2872;SDS011;1444;49.166;7.312;2022-08-27T00:26:21;40.73;;;16.73;;
2872;SDS011;1444;49.166;7.312;2022-08-27T00:28:48;29.20;;;18.20;;
2872;SDS011;1444;49.166;7.312;2022-08-27T00:31:15;27.37;;;15.20;;
2872;SDS011;1444;49.166;7.312;2022-08-27T00:33:42;27.60;;;16.10;;
2872;SDS011;1444;49.166;7.312;2022-08-27T00:36:10;21.80;;;14.27;;
2872;SDS011;1444;49.166;7.312;2022-08-27T00:38:38;23.10;;;15.00;;
2872;SDS011;1444;49.166;7.312;2022-08-27T00:41:07;26.20;;;15.37;;
2872;SDS011;1444;49.166;7.312;2022-08-27T00:43:42;22.73;;;16.03;;
2872;SDS011;1444;49.166;7.312;2022-08-27T00:46:13;24.10;;;15.40;;
2872;SDS011;1444;49.166;7.312;2022-08-27T00:48:46;20.87;;;15.00;;
2872;SDS011;1444;49.166;7.312;2022-08-27T00:51:14;23.63;;;15.40;;
2872;SDS011;1444;49.166;7.312;2022-08-27T00:53:40;24.37;;;15.47;;
2872;SDS011;1444;49.166;7.312;2022-08-27T00:56:09;34.17;;;19.00;;
2872;SDS011;1444;49.166;7.312;2022-08-27T00:58:40;27.47;;;17.90;;
2872;SDS011;1444;49.166;7.312;2022-08-27T01:01:10;29.53;;;18.30;;
2872;SDS011;1444;49.166;7.312;2022-08-27T01:03:40;26.07;;;18.17;;
2872;SDS011;1444;49.166;7.312;2022-08-27T01:06:11;26.27;;;18.70;;
2872;SDS011;1444;49.166;7.312;2022-08-27T01:08:45;27.17;;;17.97;;
2872;SDS011;1444;49.166;7.312;2022-08-27T01:11:17;30.30;;;17.57;;
2872;SDS011;1444;49.166;7.312;2022-08-27T01:13:44;30.20;;;18.87;;
2872;SDS011;1444;49.166;7.312;2022-08-27T01:16:14;26.90;;;19.20;;
2872;SDS011;1444;49.166;7.312;2022-08-27T01:18:45;27.10;;;17.47;;
2872;SDS011;1444;49.166;7.312;2022-08-27T01:21:15;28.93;;;18.97;;
2872;SDS011;1444;49.166;7.312;2022-08-27T01:23:48;28.93;;;20.17;;
2872;SDS011;1444;49.166;7.312;2022-08-27T01:26:21;26.07;;;19.63;;
2872;SDS011;1444;49.166;7.312;2022-08-27T01:28:49;30.33;;;17.63;;
2872;SDS011;1444;49.166;7.312;2022-08-27T01:31:17;22.67;;;17.60;;
2872;SDS011;1444;49.166;7.312;2022-08-27T01:33:51;28.80;;;20.30;;
2872;SDS011;1444;49.166;7.312;2022-08-27T01:36:19;21.53;;;15.93;;
2872;SDS011;1444;49.166;7.312;2022-08-27T01:38:46;26.87;;;19.30;;
2872;SDS011;1444;49.166;7.312;2022-08-27T01:41:13;28.47;;;19.33;;
2872;SDS011;1444;49.166;7.312;2022-08-27T01:43:41;28.67;;;18.17;;
2872;SDS011;1444;49.166;7.312;2022-08-27T01:46:08;25.60;;;17.50;;
2872;SDS011;1444;49.166;7.312;2022-08-27T01:48:35;24.53;;;18.30;;
2872;SDS011;1444;49.166;7.312;2022-08-27T01:51:02;30.53;;;18.23;;
2872;SDS011;1444;49.166;7.312;2022-08-27T01:53:29;28.37;;;17.53;;
2872;SDS011;1444;49.166;7.312;2022-08-27T01:55:56;26.93;;;19.80;;
2872;SDS011;1444;49.166;7.312;2022-08-27T01:58:25;27.67;;;18.73;;
2872;SDS011;1444;49.166;7.312;2022-08-27T02:00:55;30.03;;;20.70;;
2872;SDS011;1444;49.166;7.312;2022-08-27T02:03:24;29.10;;;19.10;;
2872;SDS011;1444;49.166;7.312;2022-08-27T02:05:51;24.03;;;18.30;;
2872;SDS011;1444;49.166;7.312;2022-08-27T02:08:19;28.97;;;16.40;;
2872;SDS011;1444;49.166;7.312;2022-08-27T02:10:46;30.20;;;19.20;;
2872;SDS011;1444;49.166;7.312;2022-08-27T02:13:14;28.30;;;21.00;;
2872;SDS011;1444;49.166;7.312;2022-08-27T02:15:41;28.37;;;19.47;;
2872;SDS011;1444;49.166;7.312;2022-08-27T02:18:11;31.33;;;20.33;;
2872;SDS011;1444;49.166;7.312;2022-08-27T02:20:39;28.20;;;17.67;;
2872;SDS011;1444;49.166;7.312;2022-08-27T02:23:06;25.67;;;19.60;;
2872;SDS011;1444;49.166;7.312;2022-08-27T02:25:33;25.93;;;18.30;;
2872;SDS011;1444;49.166;7.312;2022-08-27T02:28:00;27.40;;;17.93;;
2872;SDS011;1444;49.166;7.312;2022-08-27T02:30:29;26.30;;;18.80;;
2872;SDS011;1444;49.166;7.312;2022-08-27T02:32:57;28.27;;;19.27;;
2872;SDS011;1444;49.166;7.312;2022-08-27T02:35:26;31.10;;;17.17;;
2872;SDS011;1444;49.166;7.312;2022-08-27T02:37:53;26.87;;;18.23;;
2872;SDS011;1444;49.166;7.312;2022-08-27T02:40:21;24.90;;;18.23;;
2872;SDS011;1444;49.166;7.312;2022-08-27T02:42:48;23.50;;;17.17;;
2872;SDS011;1444;49.166;7.312;2022-08-27T02:45:16;24.67;;;17.00;;
2872;SDS011;1444;49.166;7.312;2022-08-27T02:47:44;29.40;;;19.57;;
2872;SDS011;1444;49.166;7.312;2022-08-27T02:50:11;23.77;;;17.00;;
2872;SDS011;1444;49.166;7.312;2022-08-27T02:52:40;24.07;;;17.70;;
2872;SDS011;1444;49.166;7.312;2022-08-27T02:55:09;24.43;;;17.93;;
2872;SDS011;1444;49.166;7.312;2022-08-27T02:57:36;23.53;;;16.60;;
2872;SDS011;1444;49.166;7.312;2022-08-27T03:00:03;26.67;;;17.90;;
2872;SDS011;1444;49.166;7.312;2022-08-27T03:02:31;23.03;;;17.73;;
2872;SDS011;1444;49.166;7.312;2022-08-27T03:04:58;21.33;;;16.97;;
2872;SDS011;1444;49.166;7.312;2022-08-27T03:07:24;21.37;;;17.17;;
2872;SDS011;1444;49.166;7.312;2022-08-27T03:09:52;22.13;;;18.87;;
2872;SDS011;1444;49.166;7.312;2022-08-27T03:12:19;25.73;;;15.30;;
2872;SDS011;1444;49.166;7.312;2022-08-27T03:14:46;23.37;;;17.53;;
2872;SDS011;1444;49.166;7.312;2022-08-27T03:17:13;19.47;;;16.07;;
2872;SDS011;1444;49.166;7.312;2022-08-27T03:19:57;27.80;;;17.67;;
2872;SDS011;1444;49.166;7.312;2022-08-27T03:22:25;27.13;;;18.70;;
2872;SDS011;1444;49.166;7.312;2022-08-27T03:24:54;24.83;;;18.00;;
2872;SDS011;1444;49.166;7.312;2022-08-27T03:27:21;25.40;;;17.03;;
2872;SDS011;1444;49.166;7.312;2022-08-27T03:29:47;34.13;;;19.33;;
2872;SDS011;1444;49.166;7.312;2022-08-27T03:32:14;23.30;;;16.33;;
2872;SDS011;1444;49.166;7.312;2022-08-27T03:34:41;24.30;;;16.03;;
2872;SDS011;1444;49.166;7.312;2022-08-27T03:37:07;27.23;;;17.77;;
2872;SDS011;1444;49.166;7.312;2022-08-27T03:39:34;25.03;;;17.10;;
2872;SDS011;1444;49.166;7.312;2022-08-27T03:42:02;28.07;;;17.80;;
2872;SDS011;1444;49.166;7.312;2022-08-27T03:44:29;25.00;;;18.53;;
2872;SDS011;1444;49.166;7.312;2022-08-27T03:46:57;25.30;;;18.23;;
2872;SDS011;1444;49.166;7.312;2022-08-27T03:49:24;27.50;;;19.47;;
2872;SDS011;1444;49.166;7.312;2022-08-27T03:51:51;26.93;;;18.60;;
2872;SDS011;1444;49.166;7.312;2022-08-27T03:54:18;30.90;;;19.80;;
2872;SDS011;1444;49.166;7.312;2022-08-27T03:56:45;23.87;;;18.87;;
2872;SDS011;1444;49.166;7.312;2022-08-27T03:59:13;23.13;;;17.17;;
2872;SDS011;1444;49.166;7.312;2022-08-27T04:01:40;23.57;;;17.70;;
2872;SDS011;1444;49.166;7.312;2022-08-27T04:04:07;24.80;;;17.60;;
2872;SDS011;1444;49.166;7.312;2022-08-27T04:06:34;29.30;;;18.13;;
2872;SDS011;1444;49.166;7.312;2022-08-27T04:09:00;22.83;;;17.67;;
2872;SDS011;1444;49.166;7.312;2022-08-27T04:11:28;26.30;;;19.00;;
2872;SDS011;1444;49.166;7.312;2022-08-27T04:13:55;28.17;;;19.10;;
2872;SDS011;1444;49.166;7.312;2022-08-27T04:16:23;24.33;;;16.97;;
2872;SDS011;1444;49.166;7.312;2022-08-27T04:18:51;26.97;;;18.60;;
2872;SDS011;1444;49.166;7.312;2022-08-27T04:21:19;26.50;;;20.30;;
2872;SDS011;1444;49.166;7.312;2022-08-27T04:23:47;31.37;;;20.90;;
2872;SDS011;1444;49.166;7.312;2022-08-27T04:26:14;25.20;;;17.40;;
2872;SDS011;1444;49.166;7.312;2022-08-27T04:28:41;25.93;;;19.67;;
2872;SDS011;1444;49.166;7.312;2022-08-27T04:31:08;26.80;;;17.80;;
2872;SDS011;1444;49.166;7.312;2022-08-27T04:33:37;35.73;;;20.00;;
2872;SDS011;1444;49.166;7.312;2022-08-27T04:36:04;31.67;;;20.27;;
2872;SDS011;1444;49.166;7.312;2022-08-27T04:38:32;29.07;;;20.10;;
2872;SDS011;1444;49.166;7.312;2022-08-27T04:41:01;28.50;;;18.50;;
2872;SDS011;1444;49.166;7.312;2022-08-27T04:43:47;25.87;;;19.60;;
2872;SDS011;1444;49.166;7.312;2022-08-27T04:46:18;23.30;;;17.90;;
2872;SDS011;1444;49.166;7.312;2022-08-27T04:48:47;25.23;;;17.50;;
2872;SDS011;1444;49.166;7.312;2022-08-27T04:51:14;28.50;;;18.80;;
2872;SDS011;1444;49.166;7.312;2022-08-27T04:53:41;25.60;;;19.13;;
2872;SDS011;1444;49.166;7.312;2022-08-27T04:56:07;28.50;;;18.80;;
2872;SDS011;1444;49.166;7.312;2022-08-27T04:58:38;32.03;;;20.63;;
2872;SDS011;1444;49.166;7.312;2022-08-27T05:01:05;21.77;;;17.57;;
2872;SDS011;1444;49.166;7.312;2022-08-27T05:03:32;26.73;;;17.77;;
2872;SDS011;1444;49.166;7.312;2022-08-27T05:06:01;26.43;;;20.67;;
2872;SDS011;1444;49.166;7.312;2022-08-27T05:08:31;22.73;;;17.67;;
2872;SDS011;1444;49.166;7.312;2022-08-27T05:10:59;27.47;;;19.17;;
2872;SDS011;1444;49.166;7.312;2022-08-27T05:13:26;27.70;;;18.23;;
2872;SDS011;1444;49.166;7.312;2022-08-27T05:15:57;26.23;;;18.23;;
2872;SDS011;1444;49.166;7.312;2022-08-27T05:18:25;25.20;;;19.20;;
2872;SDS011;1444;49.166;7.312;2022-08-27T05:20:52;28.87;;;18.07;;
2872;SDS011;1444;49.166;7.312;2022-08-27T05:23:21;24.97;;;19.53;;
2872;SDS011;1444;49.166;7.312;2022-08-27T05:25:52;23.90;;;17.23;;
2872;SDS011;1444;49.166;7.312;2022-08-27T05:28:20;24.07;;;17.03;;
2872;SDS011;1444;49.166;7.312;2022-08-27T05:30:49;26.40;;;19.27;;
2872;SDS011;1444;49.166;7.312;2022-08-27T05:33:17;24.23;;;17.20;;
2872;SDS011;1444;49.166;7.312;2022-08-27T05:35:46;26.63;;;19.60;;
2872;SDS011;1444;49.166;7.312;2022-08-27T05:38:14;26.70;;;18.13;;
2872;SDS011;1444;49.166;7.312;2022-08-27T05:40:43;25.97;;;18.47;;
2872;SDS011;1444;49.166;7.312;2022-08-27T05:43:12;28.13;;;17.93;;
2872;SDS011;1444;49.166;7.312;2022-08-27T05:45:39;25.70;;;18.10;;
2872;SDS011;1444;49.166;7.312;2022-08-27T05:48:07;23.03;;;16.83;;
2872;SDS011;1444;49.166;7.312;2022-08-27T05:50:35;25.10;;;18.57;;
2872;SDS011;1444;49.166;7.312;2022-08-27T05:53:02;28.90;;;20.03;;
2872;SDS011;1444;49.166;7.312;2022-08-27T05:55:34;24.83;;;18.47;;
2872;SDS011;1444;49.166;7.312;2022-08-27T05:58:02;27.03;;;20.63;;
2872;SDS011;1444;49.166;7.312;2022-08-27T06:00:29;30.70;;;21.07;;
2872;SDS011;1444;49.166;7.312;2022-08-27T06:03:14;24.50;;;17.87;;
2872;SDS011;1444;49.166;7.312;2022-08-27T06:05:40;29.47;;;18.37;;
2872;SDS011;1444;49.166;7.312;2022-08-27T06:08:07;25.30;;;18.73;;
2872;SDS011;1444;49.166;7.312;2022-08-27T06:10:37;23.87;;;17.17;;
2872;SDS011;1444;49.166;7.312;2022-08-27T06:13:07;26.27;;;18.27;;
2872;SDS011;1444;49.166;7.312;2022-08-27T06:15:34;24.23;;;16.60;;
2872;SDS011;1444;49.166;7.312;2022-08-27T06:18:00;20.30;;;14.90;;
2872;SDS011;1444;49.166;7.312;2022-08-27T06:20:29;21.73;;;15.67;;
2872;SDS011;1444;49.166;7.312;2022-08-27T06:22:56;17.83;;;14.90;;
2872;SDS011;1444;49.166;7.312;2022-08-27T06:25:23;20.17;;;14.07;;
2872;SDS011;1444;49.166;7.312;2022-08-27T06:27:50;20.90;;;14.60;;
2872;SDS011;1444;49.166;7.312;2022-08-27T06:30:18;15.07;;;12.30;;
2872;SDS011;1444;49.166;7.312;2022-08-27T06:32:45;14.73;;;11.07;;
2872;SDS011;1444;49.166;7.312;2022-08-27T06:35:11;12.67;;;10.47;;
2872;SDS011;1444;49.166;7.312;2022-08-27T06:37:38;15.03;;;10.50;;
2872;SDS011;1444;49.166;7.312;2022-08-27T06:40:05;11.67;;;8.97;;
2872;SDS011;1444;49.166;7.312;2022-08-27T06:42:33;12.73;;;10.00;;
2872;SDS011;1444;49.166;7.312;2022-08-27T06:45:00;10.83;;;8.93;;
2872;SDS011;1444;49.166;7.312;2022-08-27T06:47:29;9.80;;;7.83;;
2872;SDS011;1444;49.166;7.312;2022-08-27T06:49:56;11.40;;;9.37;;
2872;SDS011;1444;49.166;7.312;2022-08-27T06:52:22;8.30;;;7.43;;
2872;SDS011;1444;49.166;7.312;2022-08-27T06:54:49;11.03;;;8.77;;
2872;SDS011;1444;49.166;7.312;2022-08-27T06:57:16;10.13;;;7.63;;
2872;SDS011;1444;49.166;7.312;2022-08-27T06:59:43;10.47;;;8.20;;
2872;SDS011;1444;49.166;7.312;2022-08-27T07:02:09;9.17;;;7.57;;
2872;SDS011;1444;49.166;7.312;2022-08-27T07:04:37;7.27;;;6.50;;
2872;SDS011;1444;49.166;7.312;2022-08-27T07:07:04;11.43;;;8.03;;
2872;SDS011;1444;49.166;7.312;2022-08-27T07:09:32;14.33;;;8.30;;
2872;SDS011;1444;49.166;7.312;2022-08-27T07:11:59;15.53;;;11.50;;
2872;SDS011;1444;49.166;7.312;2022-08-27T07:14:26;11.53;;;8.80;;
2872;SDS011;1444;49.166;7.312;2022-08-27T07:16:53;17.73;;;10.60;;
2872;SDS011;1444;49.166;7.312;2022-08-27T07:19:20;13.17;;;8.93;;
2872;SDS011;1444;49.166;7.312;2022-08-27T07:21:48;14.10;;;10.40;;
2872;SDS011;1444;49.166;7.312;2022-08-27T07:24:15;13.30;;;9.20;;
2872;SDS011;1444;49.166;7.312;2022-08-27T07:26:43;19.70;;;11.47;;
2872;SDS011;1444;49.166;7.312;2022-08-27T07:29:11;14.00;;;10.27;;
2872;SDS011;1444;49.166;7.312;2022-08-27T07:31:39;18.07;;;11.17;;
2872;SDS011;1444;49.166;7.312;2022-08-27T07:34:07;19.07;;;12.27;;
2872;SDS011;1444;49.166;7.312;2022-08-27T07:36:34;15.70;;;11.77;;
2872;SDS011;1444;49.166;7.312;2022-08-27T07:39:04;20.00;;;13.33;;
2872;SDS011;1444;49.166;7.312;2022-08-27T07:41:31;23.57;;;13.17;;
2872;SDS011;1444;49.166;7.312;2022-08-27T07:44:21;18.13;;;11.70;;
2872;SDS011;1444;49.166;7.312;2022-08-27T07:46:51;24.33;;;14.43;;
2872;SDS011;1444;49.166;7.312;2022-08-27T07:49:18;23.30;;;13.13;;
2872;SDS011;1444;49.166;7.312;2022-08-27T07:51:46;17.03;;;12.80;;
2872;SDS011;1444;49.166;7.312;2022-08-27T07:54:14;18.20;;;12.17;;
2872;SDS011;1444;49.166;7.312;2022-08-27T07:56:42;21.90;;;13.40;;
2872;SDS011;1444;49.166;7.312;2022-08-27T07:59:09;19.03;;;11.97;;
2872;SDS011;1444;49.166;7.312;2022-08-27T08:01:36;19.37;;;13.20;;
2872;SDS011;1444;49.166;7.312;2022-08-27T08:04:03;16.70;;;11.67;;
2872;SDS011;1444;49.166;7.312;2022-08-27T08:06:29;17.60;;;13.10;;
2872;SDS011;1444;49.166;7.312;2022-08-27T08:08:57;16.70;;;13.53;;
2872;SDS011;1444;49.166;7.312;2022-08-27T08:11:26;22.10;;;15.37;;
2872;SDS011;1444;49.166;7.312;2022-08-27T08:13:52;19.43;;;13.00;;
2872;SDS011;1444;49.166;7.312;2022-08-27T08:16:19;20.97;;;13.00;;
2872;SDS011;1444;49.166;7.312;2022-08-27T08:18:49;24.90;;;13.43;;
2872;SDS011;1444;49.166;7.312;2022-08-27T08:21:16;19.27;;;12.27;;
2872;SDS011;1444;49.166;7.312;2022-08-27T08:23:43;19.67;;;12.90;;
2872;SDS011;1444;49.166;7.312;2022-08-27T08:26:11;22.30;;;13.23;;
2872;SDS011;1444;49.166;7.312;2022-08-27T08:28:39;21.40;;;13.20;;
2872;SDS011;1444;49.166;7.312;2022-08-27T08:31:06;19.50;;;13.10;;
2872;SDS011;1444;49.166;7.312;2022-08-27T08:33:34;21.30;;;13.50;;
2872;SDS011;1444;49.166;7.312;2022-08-27T08:36:02;22.17;;;14.70;;
2872;SDS011;1444;49.166;7.312;2022-08-27T08:38:30;22.60;;;14.57;;
2872;SDS011;1444;49.166;7.312;2022-08-27T08:40:57;23.33;;;14.27;;
2872;SDS011;1444;49.166;7.312;2022-08-27T08:43:28;26.07;;;15.70;;
2872;SDS011;1444;49.166;7.312;2022-08-27T08:46:00;22.37;;;15.37;;
2872;SDS011;1444;49.166;7.312;2022-08-27T08:48:33;23.27;;;13.97;;
2872;SDS011;1444;49.166;7.312;2022-08-27T08:51:04;21.03;;;13.60;;
2872;SDS011;1444;49.166;7.312;2022-08-27T08:53:39;21.63;;;13.33;;
2872;SDS011;1444;49.166;7.312;2022-08-27T08:56:11;20.97;;;14.93;;
2872;SDS011;1444;49.166;7.312;2022-08-27T08:58:44;22.73;;;13.30;;
2872;SDS011;1444;49.166;7.312;2022-08-27T09:01:16;26.60;;;14.80;;
2872;SDS011;1444;49.166;7.312;2022-08-27T09:03:46;18.20;;;13.70;;
2872;SDS011;1444;49.166;7.312;2022-08-27T09:06:18;21.23;;;14.17;;
2872;SDS011;1444;49.166;7.312;2022-08-27T09:08:51;25.10;;;14.80;;
2872;SDS011;1444;49.166;7.312;2022-08-27T09:11:20;19.03;;;13.13;;
2872;SDS011;1444;49.166;7.312;2022-08-27T09:13:54;22.80;;;14.23;;
2872;SDS011;1444;49.166;7.312;2022-08-27T09:16:26;22.20;;;14.53;;
2872;SDS011;1444;49.166;7.312;2022-08-27T09:18:53;20.03;;;13.80;;
2872;SDS011;1444;49.166;7.312;2022-08-27T09:21:27;24.50;;;15.83;;
2872;SDS011;1444;49.166;7.312;2022-08-27T09:24:02;21.00;;;13.53;;
2872;SDS011;1444;49.166;7.312;2022-08-27T09:26:33;24.30;;;16.00;;
2872;SDS011;1444;49.166;7.312;2022-08-27T09:29:04;22.00;;;14.73;;
2872;SDS011;1444;49.166;7.312;2022-08-27T09:31:45;21.97;;;14.77;;
2872;SDS011;1444;49.166;7.312;2022-08-27T09:34:17;22.33;;;14.83;;
2872;SDS011;1444;49.166;7.312;2022-08-27T09:36:48;24.70;;;15.73;;
2872;SDS011;1444;49.166;7.312;2022-08-27T09:39:18;23.87;;;15.13;;
2872;SDS011;1444;49.166;7.312;2022-08-27T09:41:50;19.57;;;13.33;;
2872;SDS011;1444;49.166;7.312;2022-08-27T09:44:18;21.27;;;14.07;;
2872;SDS011;1444;49.166;7.312;2022-08-27T09:46:51;19.73;;;13.97;;
2872;SDS011;1444;49.166;7.312;2022-08-27T09:49:19;24.00;;;15.50;;
2872;SDS011;1444;49.166;7.312;2022-08-27T09:51:48;23.80;;;16.27;;
2872;SDS011;1444;49.166;7.312;2022-08-27T09:57:06;19.30;;;14.80;;
2872;SDS011;1444;49.166;7.312;2022-08-27T09:59:34;21.37;;;13.70;;
2872;SDS011;1444;49.166;7.312;2022-08-27T10:02:05;23.33;;;14.57;;
2872;SDS011;1444;49.166;7.312;2022-08-27T10:04:40;21.23;;;14.20;;
2872;SDS011;1444;49.166;7.312;2022-08-27T10:07:23;22.07;;;14.77;;
2872;SDS011;1444;49.166;7.312;2022-08-27T10:09:57;22.90;;;15.82;;
2872;SDS011;1444;49.166;7.312;2022-08-27T10:12:32;22.40;;;14.40;;
2872;SDS011;1444;49.166;7.312;2022-08-27T10:15:03;24.80;;;14.93;;
2872;SDS011;1444;49.166;7.312;2022-08-27T10:17:36;21.13;;;15.37;;
2872;SDS011;1444;49.166;7.312;2022-08-27T10:20:13;20.33;;;14.97;;
2872;SDS011;1444;49.166;7.312;2022-08-27T10:22:44;21.40;;;13.90;;
2872;SDS011;1444;49.166;7.312;2022-08-27T10:25:22;20.10;;;13.20;;
2872;SDS011;1444;49.166;7.312;2022-08-27T10:27:58;21.37;;;14.77;;
2872;SDS011;1444;49.166;7.312;2022-08-27T10:30:38;21.33;;;14.40;;
2872;SDS011;1444;49.166;7.312;2022-08-27T10:33:16;26.50;;;16.47;;
2872;SDS011;1444;49.166;7.312;2022-08-27T10:35:48;21.73;;;13.93;;
2872;SDS011;1444;49.166;7.312;2022-08-27T10:38:23;19.83;;;13.33;;
2872;SDS011;1444;49.166;7.312;2022-08-27T10:41:00;18.80;;;13.20;;
2872;SDS011;1444;49.166;7.312;2022-08-27T10:43:57;16.27;;;11.00;;
2872;SDS011;1444;49.166;7.312;2022-08-27T10:46:46;15.87;;;10.80;;
2872;SDS011;1444;49.166;7.312;2022-08-27T10:49:32;15.70;;;12.07;;
2872;SDS011;1444;49.166;7.312;2022-08-27T10:52:08;16.47;;;12.10;;
2872;SDS011;1444;49.166;7.312;2022-08-27T10:54:42;17.30;;;12.10;;
2872;SDS011;1444;49.166;7.312;2022-08-27T10:57:18;16.27;;;10.90;;
2872;SDS011;1444;49.166;7.312;2022-08-27T10:59:53;15.00;;;10.80;;
2872;SDS011;1444;49.166;7.312;2022-08-27T11:02:29;14.27;;;9.80;;
2872;SDS011;1444;49.166;7.312;2022-08-27T11:05:03;18.53;;;11.43;;
2872;SDS011;1444;49.166;7.312;2022-08-27T11:07:37;15.33;;;10.93;;
2872;SDS011;1444;49.166;7.312;2022-08-27T11:10:08;16.70;;;11.57;;
2872;SDS011;1444;49.166;7.312;2022-08-27T11:12:43;12.87;;;9.63;;
2872;SDS011;1444;49.166;7.312;2022-08-27T11:15:12;14.10;;;9.93;;
2872;SDS011;1444;49.166;7.312;2022-08-27T11:17:45;15.13;;;11.03;;
2872;SDS011;1444;49.166;7.312;2022-08-27T11:20:20;15.40;;;11.50;;
2872;SDS011;1444;49.166;7.312;2022-08-27T11:22:51;14.50;;;11.17;;
2872;SDS011;1444;49.166;7.312;2022-08-27T11:25:33;14.60;;;9.00;;
2872;SDS011;1444;49.166;7.312;2022-08-27T11:28:08;15.10;;;10.70;;
2872;SDS011;1444;49.166;7.312;2022-08-27T11:30:38;16.00;;;12.20;;
2872;SDS011;1444;49.166;7.312;2022-08-27T11:33:13;19.00;;;11.00;;
2872;SDS011;1444;49.166;7.312;2022-08-27T11:36:00;12.00;;;10.17;;
2872;SDS011;1444;49.166;7.312;2022-08-27T11:38:52;18.67;;;11.97;;
2872;SDS011;1444;49.166;7.312;2022-08-27T11:44:16;13.73;;;9.93;;
2872;SDS011;1444;49.166;7.312;2022-08-27T11:46:47;11.97;;;8.80;;
2872;SDS011;1444;49.166;7.312;2022-08-27T11:49:25;10.73;;;9.23;;
2872;SDS011;1444;49.166;7.312;2022-08-27T11:51:57;9.70;;;8.70;;
2872;SDS011;1444;49.166;7.312;2022-08-27T11:54:28;13.33;;;8.30;;
2872;SDS011;1444;49.166;7.312;2022-08-27T11:56:56;10.67;;;8.63;;
2872;SDS011;1444;49.166;7.312;2022-08-27T11:59:28;15.80;;;9.27;;
2872;SDS011;1444;49.166;7.312;2022-08-27T12:01:57;10.83;;;9.30;;
2872;SDS011;1444;49.166;7.312;2022-08-27T12:04:37;11.50;;;8.83;;
2872;SDS011;1444;49.166;7.312;2022-08-27T12:07:19;11.43;;;8.70;;
2872;SDS011;1444;49.166;7.312;2022-08-27T12:09:56;15.30;;;11.53;;
2872;SDS011;1444;49.166;7.312;2022-08-27T12:12:33;17.17;;;9.20;;
2872;SDS011;1444;49.166;7.312;2022-08-27T12:15:07;13.37;;;9.53;;
2872;SDS011;1444;49.166;7.312;2022-08-27T12:17:41;9.37;;;8.23;;
2872;SDS011;1444;49.166;7.312;2022-08-27T12:20:17;9.83;;;7.93;;
2872;SDS011;1444;49.166;7.312;2022-08-27T12:22:56;10.80;;;8.20;;
2872;SDS011;1444;49.166;7.312;2022-08-27T12:25:53;9.80;;;8.80;;
2872;SDS011;1444;49.166;7.312;2022-08-27T12:28:22;10.90;;;7.60;;
2872;SDS011;1444;49.166;7.312;2022-08-27T12:30:50;9.80;;;8.20;;
2872;SDS011;1444;49.166;7.312;2022-08-27T12:33:18;11.47;;;9.63;;
2872;SDS011;1444;49.166;7.312;2022-08-27T12:35:52;12.60;;;9.23;;
2872;SDS011;1444;49.166;7.312;2022-08-27T12:38:26;10.10;;;8.67;;
2872;SDS011;1444;49.166;7.312;2022-08-27T12:41:02;8.13;;;7.10;;
2872;SDS011;1444;49.166;7.312;2022-08-27T12:43:33;9.53;;;7.27;;
2872;SDS011;1444;49.166;7.312;2022-08-27T12:46:04;7.87;;;7.03;;
2872;SDS011;1444;49.166;7.312;2022-08-27T12:48:33;10.87;;;7.90;;
2872;SDS011;1444;49.166;7.312;2022-08-27T12:51:06;11.20;;;9.60;;
2872;SDS011;1444;49.166;7.312;2022-08-27T12:53:41;8.83;;;7.93;;
2872;SDS011;1444;49.166;7.312;2022-08-27T12:56:26;11.47;;;8.83;;
2872;SDS011;1444;49.166;7.312;2022-08-27T12:59:10;7.40;;;6.67;;
2872;SDS011;1444;49.166;7.312;2022-08-27T13:02:08;9.70;;;7.30;;
2872;SDS011;1444;49.166;7.312;2022-08-27T13:04:44;8.83;;;8.03;;
2872;SDS011;1444;49.166;7.312;2022-08-27T13:07:12;9.90;;;7.60;;
2872;SDS011;1444;49.166;7.312;2022-08-27T13:09:40;7.93;;;7.13;;
2872;SDS011;1444;49.166;7.312;2022-08-27T13:12:13;8.63;;;7.47;;
2872;SDS011;1444;49.166;7.312;2022-08-27T13:14:41;7.97;;;6.77;;
2872;SDS011;1444;49.166;7.312;2022-08-27T13:17:09;8.00;;;7.00;;
2872;SDS011;1444;49.166;7.312;2022-08-27T13:19:42;8.37;;;7.57;;
2872;SDS011;1444;49.166;7.312;2022-08-27T13:22:19;8.47;;;7.30;;
2872;SDS011;1444;49.166;7.312;2022-08-27T13:24:49;11.57;;;8.40;;
2872;SDS011;1444;49.166;7.312;2022-08-27T13:27:22;12.10;;;9.43;;
2872;SDS011;1444;49.166;7.312;2022-08-27T13:29:50;12.90;;;8.17;;
2872;SDS011;1444;49.166;7.312;2022-08-27T13:32:18;8.33;;;7.47;;
2872;SDS011;1444;49.166;7.312;2022-08-27T13:34:45;10.20;;;7.97;;
2872;SDS011;1444;49.166;7.312;2022-08-27T13:37:20;9.00;;;8.13;;
2872;SDS011;1444;49.166;7.312;2022-08-27T13:39:52;8.43;;;7.63;;
2872;SDS011;1444;49.166;7.312;2022-08-27T13:42:20;11.10;;;8.23;;
2872;SDS011;1444;49.166;7.312;2022-08-27T13:44:48;8.70;;;7.90;;
2872;SDS011;1444;49.166;7.312;2022-08-27T13:47:18;9.87;;;8.60;;
2872;SDS011;1444;49.166;7.312;2022-08-27T13:49:47;8.73;;;7.83;;
2872;SDS011;1444;49.166;7.312;2022-08-27T13:52:17;11.97;;;8.00;;
2872;SDS011;1444;49.166;7.312;2022-08-27T13:54:53;8.57;;;6.80;;
2872;SDS011;1444;49.166;7.312;2022-08-27T13:57:25;9.70;;;8.80;;
2872;SDS011;1444;49.166;7.312;2022-08-27T13:59:54;10.13;;;8.50;;
2872;SDS011;1444;49.166;7.312;2022-08-27T14:02:23;8.83;;;7.50;;
2872;SDS011;1444;49.166;7.312;2022-08-27T14:05:03;8.63;;;7.70;;
2872;SDS011;1444;49.166;7.312;2022-08-27T14:07:34;9.90;;;8.00;;
2872;SDS011;1444;49.166;7.312;2022-08-27T14:10:06;7.87;;;6.37;;
2872;SDS011;1444;49.166;7.312;2022-08-27T14:12:52;6.63;;;5.90;;
2872;SDS011;1444;49.166;7.312;2022-08-27T14:15:22;7.77;;;6.97;;
2872;SDS011;1444;49.166;7.312;2022-08-27T14:17:53;8.33;;;7.00;;
2872;SDS011;1444;49.166;7.312;2022-08-27T14:20:20;7.80;;;7.00;;
2872;SDS011;1444;49.166;7.312;2022-08-27T14:22:47;6.40;;;5.80;;
2872;SDS011;1444;49.166;7.312;2022-08-27T14:25:17;7.33;;;6.53;;
2872;SDS011;1444;49.166;7.312;2022-08-27T14:27:44;8.60;;;7.80;;
2872;SDS011;1444;49.166;7.312;2022-08-27T14:30:12;7.40;;;6.60;;
2872;SDS011;1444;49.166;7.312;2022-08-27T14:32:41;10.73;;;7.10;;
2872;SDS011;1444;49.166;7.312;2022-08-27T14:35:08;7.73;;;7.03;;
2872;SDS011;1444;49.166;7.312;2022-08-27T14:37:35;8.10;;;7.30;;
2872;SDS011;1444;49.166;7.312;2022-08-27T14:40:03;9.10;;;6.43;;
2872;SDS011;1444;49.166;7.312;2022-08-27T14:42:31;7.70;;;7.00;;
2872;SDS011;1444;49.166;7.312;2022-08-27T14:44:58;8.33;;;6.53;;
2872;SDS011;1444;49.166;7.312;2022-08-27T14:47:25;8.00;;;7.30;;
2872;SDS011;1444;49.166;7.312;2022-08-27T14:49:52;8.60;;;7.80;;
2872;SDS011;1444;49.166;7.312;2022-08-27T14:52:19;8.05;;;7.13;;
2872;SDS011;1444;49.166;7.312;2022-08-27T14:54:46;8.30;;;7.50;;
2872;SDS011;1444;49.166;7.312;2022-08-27T14:57:12;8.23;;;7.03;;
2872;SDS011;1444;49.166;7.312;2022-08-27T14:59:40;8.27;;;6.70;;
2872;SDS011;1444;49.166;7.312;2022-08-27T15:02:09;6.70;;;6.10;;
2872;SDS011;1444;49.166;7.312;2022-08-27T15:04:38;7.23;;;6.53;;
2872;SDS011;1444;49.166;7.312;2022-08-27T15:07:05;9.00;;;7.50;;
2872;SDS011;1444;49.166;7.312;2022-08-27T15:09:32;8.50;;;7.60;;
2872;SDS011;1444;49.166;7.312;2022-08-27T15:11:59;8.20;;;6.40;;
2872;SDS011;1444;49.166;7.312;2022-08-27T15:14:26;8.20;;;7.40;;
2872;SDS011;1444;49.166;7.312;2022-08-27T15:16:56;7.60;;;6.80;;